Time;durP1;ratioP1;P1;durP2;ratioP2;P2;SDS_P1;SDS_P2;PMS_P1;PMS_P2;Temp;Humidity;BMP_temperature;BMP_pressure;BME280_temperature;BME280_humidity;BME280_pressure;Samples;Min_cycle;Max_cycle;Signal;HPM_P1;HPM_P2
2023/07/02 00:00:01;;;;;;;0.20;0.13;;;;;;;23.00;100.00;100645.75;10394737;28;20567;-81
2023/07/02 00:05:09;;;;;;;0.30;0.10;;;;;;;23.16;100.00;100645.31;10418736;28;20503;-81
2023/07/02 00:10:11;;;;;;;0.10;0.10;;;;;;;23.52;100.00;100642.44;10418787;28;20038;-82
2023/07/02 00:15:12;;;;;;;1.45;1.27;;;;;;;23.07;100.00;100630.69;10417671;28;20129;-81
2023/07/02 00:20:16;;;;;;;0.10;0.10;;;;;;;22.94;100.00;100615.28;10417614;28;20072;-81
2023/07/02 00:25:18;;;;;;;0.45;0.20;;;;;;;23.22;100.00;100621.50;10401240;28;20037;-81
2023/07/02 00:30:20;;;;;;;0.20;0.20;;;;;;;23.16;100.00;100630.38;10417928;28;20504;-81
2023/07/02 00:35:22;;;;;;;0.52;0.52;;;;;;;23.06;100.00;100624.56;10417605;28;20408;-81
2023/07/02 00:40:23;;;;;;;0.57;0.30;;;;;;;23.13;100.00;100618.19;10417722;28;20049;-82
2023/07/02 00:45:26;;;;;;;0.30;0.20;;;;;;;22.93;100.00;100617.97;10396876;28;20045;-81
2023/07/02 00:50:29;;;;;;;0.22;0.05;;;;;;;23.24;100.00;100612.63;10417075;28;20447;-82
2023/07/02 00:55:30;;;;;;;0.20;0.10;;;;;;;22.88;100.00;100614.63;10416975;28;20065;-82
2023/07/02 01:00:32;;;;;;;0.90;0.20;;;;;;;23.30;100.00;100622.09;10419501;28;20159;-82
2023/07/02 01:05:37;;;;;;;0.40;0.40;;;;;;;23.45;100.00;100626.88;10416618;28;20403;-82
2023/07/02 01:10:38;;;;;;;0.00;0.00;;;;;;;23.47;100.00;100634.72;10425032;28;20037;-82
2023/07/02 01:15:42;;;;;;;0.00;0.00;;;;;;;23.58;100.00;100636.97;10408935;28;20045;-82
2023/07/02 01:20:44;;;;;;;0.65;0.22;;;;;;;23.42;100.00;100634.84;10416682;28;20064;-83
2023/07/02 01:25:47;;;;;;;0.75;0.57;;;;;;;23.25;100.00;100645.91;10417113;28;20046;-83
2023/07/02 01:30:48;;;;;;;0.25;0.13;;;;;;;22.54;100.00;100678.59;10430836;28;20137;-84
2023/07/02 01:35:50;;;;;;;9.75;3.90;;;;;;;23.02;100.00;100667.59;10405939;28;20095;-82
2023/07/02 01:41:17;;;;;;;1.40;0.50;;;;;;;22.72;100.00;100667.59;10413627;28;20133;-84
2023/07/02 01:46:19;;;;;;;6.88;1.17;;;;;;;22.70;100.00;100669.41;10399845;28;20128;-83
2023/07/02 01:51:21;;;;;;;2.30;0.85;;;;;;;22.50;100.00;100678.69;10416617;28;20056;-82
2023/07/02 01:56:23;;;;;;;1.20;0.08;;;;;;;22.31;100.00;100683.56;10400136;28;20041;-83
2023/07/02 02:01:24;;;;;;;0.47;0.22;;;;;;;22.64;100.00;100685.31;10432228;28;20056;-81
2023/07/02 02:06:26;;;;;;;0.03;0.03;;;;;;;22.54;100.00;100683.84;10415745;28;20038;-82
2023/07/02 02:11:28;;;;;;;0.17;0.13;;;;;;;21.94;100.00;100688.88;10398305;28;20065;-82
2023/07/02 02:16:29;;;;;;;2.20;0.77;;;;;;;22.28;100.00;100698.53;10416608;28;20042;-81
2023/07/02 02:21:31;;;;;;;0.40;0.13;;;;;;;22.61;100.00;100688.91;10415566;28;20112;-82
2023/07/02 02:26:34;;;;;;;0.57;0.55;;;;;;;22.25;100.00;100698.59;10397975;28;20479;-82
2023/07/02 02:31:38;;;;;;;1.00;0.60;;;;;;;22.13;100.00;100694.50;10397925;28;20393;-81
2023/07/02 02:36:40;;;;;;;0.30;0.28;;;;;;;22.01;100.00;100701.81;10413884;28;20099;-81
2023/07/02 02:41:42;;;;;;;0.10;0.10;;;;;;;22.01;100.00;100696.56;10413879;28;20054;-83
2023/07/02 02:46:46;;;;;;;0.32;0.20;;;;;;;22.05;100.00;100706.97;10397837;28;20592;-82
2023/07/02 02:51:48;;;;;;;5.47;0.57;;;;;;;22.29;100.00;100708.13;10414708;28;20037;-82
2023/07/02 02:56:50;;;;;;;0.20;0.03;;;;;;;21.29;100.00;100713.94;10413554;28;20045;-81
2023/07/02 03:01:52;;;;;;;1.50;1.40;;;;;;;21.27;100.00;100713.09;10429962;28;20041;-81
2023/07/02 03:06:53;;;;;;;0.45;0.30;;;;;;;21.13;100.00;100711.66;10399130;28;20141;-81
2023/07/02 03:11:55;;;;;;;0.30;0.30;;;;;;;21.35;100.00;100726.91;10412539;28;20157;-81
2023/07/02 03:16:57;;;;;;;0.10;0.10;;;;;;;21.44;100.00;100731.94;10395964;28;20041;-81
2023/07/02 03:21:59;;;;;;;0.20;0.20;;;;;;;21.67;100.00;100728.81;10412393;28;20037;-81
2023/07/02 03:27:00;;;;;;;8.98;0.32;;;;;;;21.35;100.00;100742.63;10406305;28;20060;-81
2023/07/02 03:32:02;;;;;;;0.20;0.13;;;;;;;21.29;100.00;100753.25;10409713;28;20045;-81
2023/07/02 03:37:04;;;;;;;0.90;0.52;;;;;;;21.12;100.00;100751.81;10428618;28;20116;-81
2023/07/02 03:42:07;;;;;;;0.85;0.40;;;;;;;21.17;100.00;100755.22;10396161;28;20053;-81
2023/07/02 03:47:08;;;;;;;0.13;0.13;;;;;;;21.52;100.00;100761.47;10411888;28;20478;-81
2023/07/02 03:52:10;;;;;;;0.00;0.00;;;;;;;21.29;100.00;100759.38;10411719;28;20045;-81
2023/07/02 03:57:14;;;;;;;0.20;0.10;;;;;;;21.56;100.00;100752.63;10411275;28;20079;-81
2023/07/02 04:02:15;;;;;;;0.35;0.22;;;;;;;21.12;100.00;100767.53;10413206;28;20396;-81
2023/07/02 04:07:17;;;;;;;0.40;0.25;;;;;;;21.52;100.00;100771.13;10395299;28;20088;-81
2023/07/02 04:12:19;;;;;;;0.00;0.00;;;;;;;21.33;100.00;100781.97;10403244;28;20057;-81
2023/07/02 04:17:21;;;;;;;0.43;0.40;;;;;;;21.23;100.00;100769.94;10411338;28;20069;-81
2023/07/02 04:22:23;;;;;;;0.17;0.10;;;;;;;21.21;100.00;100777.84;10393461;28;20049;-81
2023/07/02 04:27:24;;;;;;;0.20;0.17;;;;;;;20.99;100.00;100787.03;10410188;28;20046;-81
2023/07/02 04:32:46;;;;;;;0.40;0.22;;;;;;;21.29;100.00;100785.56;10410822;28;20045;-81
2023/07/02 04:37:48;;;;;;;10.95;0.70;;;;;;;21.34;100.00;100783.69;10433611;28;20041;-81
2023/07/02 04:42:57;;;;;;;0.88;0.45;;;;;;;21.15;100.00;100796.31;10434417;28;20241;-81
2023/07/02 04:48:00;;;;;;;0.97;0.50;;;;;;;21.11;100.00;100805.09;10418345;28;20128;-82
2023/07/02 04:53:02;;;;;;;0.32;0.22;;;;;;;21.35;100.00;100801.16;10407707;28;20064;-81
2023/07/02 04:58:04;;;;;;;1.20;0.20;;;;;;;21.65;100.00;100793.56;10417567;28;20048;-81
2023/07/02 05:03:05;;;;;;;1.15;0.30;;;;;;;22.10;100.00;100805.63;10418497;28;20045;-81
2023/07/02 05:08:07;;;;;;;0.95;0.55;;;;;;;22.27;100.00;100807.84;10433708;28;20048;-81
2023/07/02 05:13:09;;;;;;;0.50;0.47;;;;;;;21.86;100.00;100807.94;10417480;28;20407;-81
2023/07/02 05:18:10;;;;;;;13.65;0.65;;;;;;;21.67;100.00;100806.63;10417046;28;20476;-81
2023/07/02 05:23:12;;;;;;;1.70;0.52;;;;;;;21.87;100.00;100804.41;10417183;28;20057;-81
2023/07/02 05:28:14;;;;;;;0.52;0.45;;;;;;;21.82;100.00;100808.03;10400180;28;20381;-82
2023/07/02 05:33:15;;;;;;;2.10;0.80;;;;;;;22.47;100.00;100819.69;10416377;28;20502;-81
2023/07/02 05:38:20;;;;;;;0.52;0.30;;;;;;;22.33;100.00;100817.34;10432932;28;20061;-81
2023/07/02 05:43:22;;;;;;;0.38;0.20;;;;;;;22.11;100.00;100817.88;10408367;28;20052;-82
2023/07/02 05:48:23;;;;;;;1.10;0.20;;;;;;;22.14;100.00;100828.31;10417594;28;20403;-82
2023/07/02 05:53:25;;;;;;;0.88;0.70;;;;;;;22.27;100.00;100828.00;10416086;28;20507;-82
2023/07/02 05:58:27;;;;;;;0.93;0.47;;;;;;;22.69;100.00;100834.88;10417232;28;20124;-81
2023/07/02 06:03:45;;;;;;;1.08;0.65;;;;;;;22.29;100.00;100836.72;10415600;28;20072;-82
2023/07/02 06:08:47;;;;;;;1.92;0.85;;;;;;;22.52;100.00;100848.44;10414993;28;20129;-82
2023/07/02 06:13:48;;;;;;;1.52;0.52;;;;;;;22.66;100.00;100849.81;10415375;28;20506;-81
2023/07/02 06:18:50;;;;;;;0.82;0.57;;;;;;;22.59;100.00;100850.00;10415318;28;20400;-82
2023/07/02 06:23:52;;;;;;;0.70;0.70;;;;;;;22.88;100.00;100853.66;10415423;28;20057;-82
2023/07/02 06:28:54;;;;;;;2.15;1.40;;;;;;;22.44;100.00;100862.63;10416325;28;20379;-82
2023/07/02 06:33:55;;;;;;;0.90;0.68;;;;;;;23.00;100.00;100863.81;10398120;28;20502;-82
2023/07/02 06:38:57;;;;;;;0.30;0.30;;;;;;;22.57;100.00;100864.94;10414381;28;20091;-83
2023/07/02 06:43:59;;;;;;;1.58;0.88;;;;;;;22.14;100.00;100874.66;10414651;28;20496;-83
2023/07/02 06:49:01;;;;;;;0.95;0.40;;;;;;;23.00;100.00;100876.97;10414046;28;20053;-82
2023/07/02 06:54:03;;;;;;;1.45;0.52;;;;;;;22.74;100.00;100885.50;10413851;28;20041;-83
2023/07/02 06:59:04;;;;;;;0.77;0.52;;;;;;;23.67;100.00;100889.16;10413328;28;20041;-81
2023/07/02 07:04:06;;;;;;;0.80;0.80;;;;;;;23.67;100.00;100899.69;10413697;28;20041;-81
2023/07/02 07:09:08;;;;;;;5.57;0.60;;;;;;;22.82;100.00;100900.16;10414838;28;20034;-82
2023/07/02 07:14:09;;;;;;;0.68;0.50;;;;;;;23.05;100.00;100900.47;10413529;28;20043;-82
2023/07/02 07:19:11;;;;;;;0.40;0.40;;;;;;;22.54;100.00;100912.25;10413085;28;20140;-82
2023/07/02 07:24:12;;;;;;;0.85;0.40;;;;;;;22.87;100.00;100917.59;10400349;28;20523;-83
2023/07/02 07:29:14;;;;;;;1.35;0.50;;;;;;;22.22;100.00;100926.97;10412819;28;20034;-82
2023/07/02 07:34:16;;;;;;;0.90;0.30;;;;;;;22.35;100.00;100925.78;10413100;28;20049;-83
2023/07/02 07:39:17;;;;;;;0.88;0.50;;;;;;;23.47;100.00;100923.06;10404484;28;20045;-83
2023/07/02 07:44:19;;;;;;;0.47;0.47;;;;;;;22.96;100.00;100930.50;10429599;28;20492;-82
2023/07/02 07:49:21;;;;;;;2.72;0.38;;;;;;;23.22;100.00;100935.09;10426561;28;20041;-81
2023/07/02 07:54:24;;;;;;;0.65;0.47;;;;;;;23.06;100.00;100942.47;10418213;28;20041;-82
2023/07/02 07:59:26;;;;;;;0.65;0.57;;;;;;;23.69;100.00;100936.44;10420130;28;20125;-83
2023/07/02 08:04:27;;;;;;;1.98;0.77;;;;;;;23.96;100.00;100945.34;10436235;28;20037;-83
2023/07/02 08:09:29;;;;;;;0.03;0.03;;;;;;;23.50;100.00;100938.72;10414963;28;20103;-82
2023/07/02 08:14:31;;;;;;;0.65;0.32;;;;;;;23.36;100.00;100947.88;10420792;28;20124;-83
2023/07/02 08:19:32;;;;;;;0.17;0.13;;;;;;;24.33;100.00;100935.50;10420393;28;20049;-83
2023/07/02 08:24:34;;;;;;;0.63;0.20;;;;;;;24.44;100.00;100933.38;10435981;28;20052;-83
2023/07/02 08:29:36;;;;;;;1.92;1.08;;;;;;;22.73;100.00;100931.94;10420879;28;20510;-85
2023/07/02 08:34:38;;;;;;;1.23;0.57;;;;;;;23.00;100.00;100950.53;10419475;28;20049;-83
2023/07/02 08:39:40;;;;;;;0.38;0.38;;;;;;;25.00;100.00;100943.00;10422072;28;20044;-83
2023/07/02 08:44:45;;;;;;;3.88;0.82;;;;;;;24.22;100.00;100959.50;10431920;28;20137;-84
2023/07/02 08:49:48;;;;;;;2.03;0.65;;;;;;;24.07;100.00;100961.69;10434515;28;20103;-84
2023/07/02 08:54:50;;;;;;;0.80;0.40;;;;;;;24.62;99.42;100963.53;10401498;28;20045;-84
2023/07/02 08:59:51;;;;;;;0.00;0.00;;;;;;;23.80;100.00;100967.72;10435295;28;20030;-84
2023/07/02 09:04:59;;;;;;;0.60;0.25;;;;;;;23.63;100.00;100968.19;10418794;28;20575;-84
2023/07/02 09:10:02;;;;;;;2.72;0.40;;;;;;;23.96;99.24;100973.44;10399864;28;20050;-84
2023/07/02 09:15:08;;;;;;;0.43;0.20;;;;;;;25.20;96.61;100962.56;10401637;28;20053;-85
2023/07/02 09:20:10;;;;;;;2.45;0.95;;;;;;;24.91;99.96;100977.53;10416924;28;20550;-84
2023/07/02 09:25:11;;;;;;;2.33;0.45;;;;;;;25.09;98.19;100972.59;10408848;28;20373;-84
2023/07/02 09:30:19;;;;;;;0.43;0.43;;;;;;;24.03;95.86;100991.63;10415559;28;20049;-85
2023/07/02 09:35:21;;;;;;;0.00;0.00;;;;;;;24.06;95.48;100990.66;10408484;28;20492;-83
2023/07/02 09:40:24;;;;;;;0.50;0.28;;;;;;;25.52;96.17;100971.13;10425236;28;20049;-84
2023/07/02 09:45:26;;;;;;;0.50;0.45;;;;;;;25.86;92.95;100979.59;10396957;28;20049;-83
2023/07/02 09:50:29;;;;;;;0.00;0.00;;;;;;;24.59;95.05;100986.47;10417321;28;20412;-83
2023/07/02 09:55:32;;;;;;;0.47;0.30;;;;;;;23.96;96.69;100992.72;10416041;28;20558;-83
2023/07/02 10:00:34;;;;;;;0.47;0.45;;;;;;;24.60;99.16;101002.25;10430371;28;20488;-84
2023/07/02 10:05:36;;;;;;;1.77;0.50;;;;;;;24.82;89.93;100993.69;10429288;28;20140;-84
2023/07/02 10:10:38;;;;;;;0.60;0.50;;;;;;;24.39;92.84;100996.69;10416766;28;20049;-84
2023/07/02 10:15:41;;;;;;;0.85;0.60;;;;;;;24.07;92.08;100998.53;10397137;28;20059;-86
2023/07/02 10:20:43;;;;;;;0.43;0.40;;;;;;;24.84;89.31;101007.66;10430916;28;20038;-84
2023/07/02 10:25:44;;;;;;;0.17;0.17;;;;;;;26.52;89.66;101000.88;10405834;28;20045;-84
2023/07/02 10:30:46;;;;;;;0.50;0.20;;;;;;;24.98;85.12;101007.22;10429941;28;20526;-83
2023/07/02 10:35:49;;;;;;;0.43;0.20;;;;;;;26.93;84.76;100994.88;10413064;28;20049;-85
2023/07/02 10:40:56;;;;;;;0.55;0.47;;;;;;;24.79;86.26;101006.94;10402748;28;20081;-84
2023/07/02 10:46:00;;;;;;;0.30;0.20;;;;;;;24.98;87.64;101013.31;10389080;28;20056;-83
2023/07/02 10:51:11;;;;;;;0.00;0.00;;;;;;;26.33;88.80;101010.41;10414226;28;20041;-84
2023/07/02 10:56:17;;;;;;;0.13;0.10;;;;;;;27.23;86.82;100997.13;10410822;28;20546;-83
2023/07/02 11:01:23;;;;;;;0.45;0.30;;;;;;;25.87;83.12;100982.19;10409224;28;20064;-83
2023/07/02 11:06:27;;;;;;;42.65;1.65;;;;;;;25.42;80.90;101001.38;10395945;28;20038;-84
2023/07/02 11:11:29;;;;;;;0.10;0.10;;;;;;;25.92;82.38;101006.63;10412333;28;20045;-83
2023/07/02 11:16:33;;;;;;;0.20;0.15;;;;;;;24.82;82.61;101009.50;10402013;28;20396;-84
2023/07/02 11:21:53;;;;;;;0.10;0.10;;;;;;;24.00;83.23;101025.94;10411728;28;20056;-84
2023/07/02 11:26:55;;;;;;;0.55;0.22;;;;;;;25.36;87.42;101010.34;10392219;28;20049;-84
2023/07/02 11:32:11;;;;;;;0.32;0.10;;;;;;;25.26;83.82;101022.97;10410487;28;20053;-84
2023/07/02 11:37:12;;;;;;;2.15;0.88;;;;;;;27.26;82.41;101004.94;10417890;28;20049;-84
2023/07/02 11:42:14;;;;;;;3.42;1.00;;;;;;;26.19;82.65;101017.09;10404265;28;20053;-84
2023/07/02 11:47:16;;;;;;;1.00;0.52;;;;;;;24.81;81.47;101031.47;10397175;28;20070;-86
2023/07/02 11:52:18;;;;;;;0.03;0.00;;;;;;;25.19;85.24;101005.63;10431986;28;20473;-81
2023/07/02 11:57:21;;;;;;;0.00;0.00;;;;;;;26.49;85.05;101016.81;10428157;28;20048;-85
2023/07/02 12:02:23;;;;;;;1.13;0.93;;;;;;;26.58;78.59;101021.75;10417971;28;20038;-85
2023/07/02 12:07:25;;;;;;;0.28;0.20;;;;;;;26.63;81.05;101018.06;10416903;28;20827;-85
2023/07/02 12:12:27;;;;;;;0.20;0.10;;;;;;;27.15;85.15;101025.69;10434446;28;20076;-84
2023/07/02 12:17:28;;;;;;;0.55;0.32;;;;;;;26.91;79.78;101024.00;10393126;28;20052;-84
2023/07/02 12:22:30;;;;;;;0.00;0.00;;;;;;;27.20;79.95;101027.22;10433511;28;20053;-83
2023/07/02 12:27:32;;;;;;;0.32;0.20;;;;;;;26.68;80.83;101032.81;10419025;28;20116;-83
2023/07/02 12:32:34;;;;;;;1.95;0.77;;;;;;;26.61;78.51;101031.34;10433016;28;20496;-85
2023/07/02 12:37:43;;;;;;;0.08;0.08;;;;;;;25.01;77.80;101044.88;10413887;28;20099;-84
2023/07/02 12:42:46;;;;;;;0.55;0.35;;;;;;;26.06;80.39;101034.28;10391001;28;20069;-85
2023/07/02 12:47:48;;;;;;;0.60;0.32;;;;;;;24.99;76.34;101051.09;10430708;28;20041;-82
2023/07/02 12:52:50;;;;;;;0.63;0.40;;;;;;;24.60;79.74;101049.66;10419165;28;20103;-82
2023/07/02 12:57:52;;;;;;;0.20;0.20;;;;;;;26.46;78.97;101038.09;10414301;28;20049;-85
2023/07/02 13:02:54;;;;;;;0.75;0.20;;;;;;;26.02;74.72;101049.38;10400201;28;20049;-84
2023/07/02 13:08:06;;;;;;;0.00;0.00;;;;;;;26.01;73.39;101046.81;10416235;28;20092;-84
2023/07/02 13:13:09;;;;;;;0.00;0.00;;;;;;;24.38;75.81;101071.34;10413657;28;20046;-82
2023/07/02 13:18:23;;;;;;;1.98;0.63;;;;;;;24.51;74.29;101071.00;10424409;28;20038;-84
2023/07/02 13:23:25;;;;;;;0.70;0.20;;;;;;;25.79;79.88;101052.84;10428059;28;20075;-86
2023/07/02 13:28:28;;;;;;;0.20;0.13;;;;;;;25.58;74.07;101070.28;10413757;28;20083;-85
2023/07/02 13:33:30;;;;;;;0.65;0.60;;;;;;;26.59;75.81;101059.59;10415375;28;20051;-83
2023/07/02 13:38:33;;;;;;;0.57;0.25;;;;;;;25.70;73.92;101069.84;10414268;28;20045;-82
2023/07/02 13:43:35;;;;;;;0.10;0.10;;;;;;;26.15;75.10;101075.34;10428333;28;20453;-84
2023/07/02 13:48:37;;;;;;;0.47;0.43;;;;;;;25.55;71.64;101065.97;10410620;28;20048;-83
2023/07/02 13:53:39;;;;;;;2.70;1.50;;;;;;;25.15;75.68;101072.53;10413704;28;20061;-81
2023/07/02 13:58:56;;;;;;;0.10;0.10;;;;;;;26.94;78.29;101064.44;10400475;28;20064;-81
2023/07/02 14:03:58;;;;;;;0.10;0.10;;;;;;;24.68;73.74;101083.69;10426566;28;20041;-83
2023/07/02 14:09:00;;;;;;;0.80;0.50;;;;;;;25.06;76.24;101089.53;10396710;28;20056;-83
2023/07/02 14:14:02;;;;;;;0.10;0.10;;;;;;;26.24;74.87;101078.53;10426437;28;20507;-85
2023/07/02 14:19:04;;;;;;;1.10;0.55;;;;;;;26.08;81.93;101085.28;10436884;28;20484;-84
2023/07/02 14:24:06;;;;;;;0.10;0.10;;;;;;;26.15;80.83;101065.66;10417106;28;20060;-85
2023/07/02 14:29:08;;;;;;;0.30;0.00;;;;;;;25.14;80.56;101076.09;10410135;28;20419;-84
2023/07/02 14:34:09;;;;;;;0.22;0.22;;;;;;;26.35;82.00;101070.22;10413920;28;20041;-86
2023/07/02 14:39:11;;;;;;;0.60;0.50;;;;;;;25.76;79.52;101064.38;10437646;28;20068;-85
2023/07/02 14:44:13;;;;;;;0.50;0.50;;;;;;;26.67;78.93;101062.81;10404304;28;20080;-85
2023/07/02 14:49:15;;;;;;;0.52;0.22;;;;;;;26.21;78.95;101068.06;10427376;28;20034;-84
2023/07/02 14:54:17;;;;;;;0.55;0.22;;;;;;;26.03;79.99;101068.69;10411645;28;20046;-84
2023/07/02 14:59:19;;;;;;;0.30;0.30;;;;;;;25.53;80.66;101073.06;10422643;28;20069;-86
2023/07/02 15:04:21;;;;;;;0.15;0.15;;;;;;;25.83;82.30;101067.66;10405409;28;20485;-85
2023/07/02 15:09:24;;;;;;;1.00;0.43;;;;;;;26.53;78.86;101055.44;10412621;28;20048;-84
2023/07/02 15:14:25;;;;;;;0.50;0.28;;;;;;;25.53;80.94;101070.44;10406486;28;20057;-84
2023/07/02 15:19:27;;;;;;;0.08;0.08;;;;;;;25.31;82.88;101067.66;10410937;28;20100;-84
2023/07/02 15:24:29;;;;;;;1.55;0.43;;;;;;;25.65;82.08;101056.81;10411313;28;20061;-83
2023/07/02 15:29:31;;;;;;;0.20;0.10;;;;;;;25.75;79.16;101057.38;10421634;28;20042;-84
2023/07/02 15:34:32;;;;;;;1.35;0.30;;;;;;;25.60;81.04;101053.50;10391797;28;20437;-82
2023/07/02 15:39:34;;;;;;;0.70;0.20;;;;;;;25.25;80.68;101058.16;10410424;28;20041;-84
2023/07/02 15:44:37;;;;;;;1.17;0.45;;;;;;;26.21;81.36;101064.59;10426522;28;20045;-83
2023/07/02 15:49:39;;;;;;;0.45;0.32;;;;;;;26.04;81.54;101063.38;10425309;28;20639;-83
2023/07/02 15:54:41;;;;;;;8.85;1.10;;;;;;;26.31;77.03;101055.38;10386671;28;20045;-82
2023/07/02 15:59:43;;;;;;;2.72;0.08;;;;;;;24.86;70.98;101063.81;10408474;28;20141;-82
2023/07/02 16:04:46;;;;;;;0.10;0.10;;;;;;;25.29;74.70;101065.03;10412403;28;20120;-82
2023/07/02 16:09:53;;;;;;;0.05;0.03;;;;;;;26.06;72.90;101061.53;10408408;28;20045;-83
2023/07/02 16:14:55;;;;;;;0.20;0.20;;;;;;;25.78;76.12;101066.97;10395315;28;20481;-82
2023/07/02 16:19:57;;;;;;;1.60;1.05;;;;;;;25.62;73.18;101067.50;10420512;28;20095;-82
2023/07/02 16:24:59;;;;;;;0.13;0.03;;;;;;;25.35;75.17;101077.16;10407577;28;20427;-83
2023/07/02 16:30:01;;;;;;;0.40;0.20;;;;;;;25.44;75.32;101083.94;10404592;28;20041;-81
2023/07/02 16:35:02;;;;;;;0.10;0.10;;;;;;;25.64;74.41;101065.69;10414808;28;20049;-82
2023/07/02 16:40:05;;;;;;;0.57;0.40;;;;;;;26.22;74.69;101072.44;10395199;28;20073;-83
2023/07/02 16:45:07;;;;;;;0.77;0.63;;;;;;;25.64;76.33;101068.31;10429196;28;20564;-84
2023/07/02 16:50:09;;;;;;;0.93;0.25;;;;;;;24.95;76.42;101081.97;10406889;28;20116;-83
2023/07/02 16:55:11;;;;;;;0.22;0.22;;;;;;;25.34;77.90;101076.31;10423364;28;20057;-85
2023/07/02 17:00:13;;;;;;;0.52;0.38;;;;;;;24.85;77.29;101072.59;10431323;28;20115;-85
2023/07/02 17:05:15;;;;;;;0.17;0.08;;;;;;;25.11;76.53;101070.94;10415041;28;20051;-84
2023/07/02 17:10:17;;;;;;;1.70;0.50;;;;;;;24.83;79.27;101071.81;10415223;28;20041;-83
2023/07/02 17:15:19;;;;;;;0.65;0.40;;;;;;;25.07;78.89;101069.28;10421923;28;20054;-85
2023/07/02 17:20:21;;;;;;;1.60;1.05;;;;;;;25.60;77.52;101053.50;10415966;28;20072;-85
2023/07/02 17:25:23;;;;;;;0.65;0.30;;;;;;;24.99;76.77;101051.94;10415913;28;20091;-84
2023/07/02 17:30:24;;;;;;;0.22;0.22;;;;;;;24.91;79.62;101053.97;10414037;28;20061;-85
2023/07/02 17:35:26;;;;;;;0.30;0.10;;;;;;;25.11;82.62;101052.47;10413976;28;20561;-85
2023/07/02 17:40:28;;;;;;;0.75;0.30;;;;;;;24.91;82.84;101059.25;10408416;28;20443;-84
2023/07/02 17:45:29;;;;;;;0.22;0.10;;;;;;;25.03;82.96;101053.59;10390622;28;20119;-85
2023/07/02 17:50:31;;;;;;;2.08;1.00;;;;;;;24.80;81.62;101051.69;10398319;28;20510;-82
2023/07/02 17:55:33;;;;;;;0.52;0.52;;;;;;;24.83;81.17;101045.47;10429376;28;20053;-83
2023/07/02 18:00:34;;;;;;;0.00;0.00;;;;;;;24.74;81.39;101035.22;10409037;28;20056;-83
2023/07/02 18:05:36;;;;;;;0.00;0.00;;;;;;;25.25;84.40;101031.78;10404744;28;20092;-85
2023/07/02 18:10:41;;;;;;;1.90;0.70;;;;;;;25.43;82.57;101022.44;10428872;28;20522;-82
2023/07/02 18:15:44;;;;;;;0.52;0.30;;;;;;;25.69;84.91;101027.69;10405968;28;20455;-84
2023/07/02 18:20:47;;;;;;;0.43;0.40;;;;;;;25.26;84.58;101030.88;10416428;28;20052;-81
2023/07/02 18:25:54;;;;;;;1.63;0.98;;;;;;;25.31;84.35;101025.47;10390309;28;20542;-83
2023/07/02 18:30:56;;;;;;;0.50;0.50;;;;;;;24.95;85.26;101023.97;10399452;28;20120;-82
2023/07/02 18:35:58;;;;;;;0.55;0.52;;;;;;;24.89;85.86;101018.91;10415708;28;20045;-83
2023/07/02 18:41:06;;;;;;;0.90;0.65;;;;;;;24.78;87.13;101027.16;10405273;28;20750;-84
2023/07/02 18:46:08;;;;;;;0.23;0.20;;;;;;;24.23;87.49;101024.41;10425182;28;20068;-83
2023/07/02 18:51:10;;;;;;;0.75;0.47;;;;;;;24.63;86.40;101023.19;10409940;28;20534;-83
2023/07/02 18:56:12;;;;;;;0.70;0.43;;;;;;;24.45;86.86;101018.50;10403454;28;20049;-84
2023/07/02 19:01:15;;;;;;;0.35;0.30;;;;;;;24.45;87.30;101023.78;10410478;28;20049;-85
2023/07/02 19:06:17;;;;;;;0.55;0.52;;;;;;;24.36;87.62;101017.88;10405475;28;20575;-82
2023/07/02 19:11:19;;;;;;;0.10;0.03;;;;;;;24.50;88.74;101016.59;10414121;28;20041;-83
2023/07/02 19:16:20;;;;;;;0.65;0.32;;;;;;;24.31;89.50;101011.88;10413212;28;20064;-82
2023/07/02 19:21:23;;;;;;;0.60;0.32;;;;;;;24.71;89.07;101013.31;10425953;28;20068;-83
2023/07/02 19:26:25;;;;;;;0.10;0.10;;;;;;;24.82;89.55;101002.44;10409527;28;20073;-82
2023/07/02 19:31:27;;;;;;;1.75;0.22;;;;;;;24.36;89.44;101009.09;10418955;28;20488;-83
2023/07/02 19:36:28;;;;;;;0.60;0.22;;;;;;;24.29;91.37;101004.94;10400879;28;20136;-83
2023/07/02 19:41:30;;;;;;;2.08;0.65;;;;;;;24.35;89.88;101013.50;10437547;28;20489;-84
2023/07/02 19:46:32;;;;;;;1.20;0.22;;;;;;;24.54;90.69;101012.94;10402514;28;20049;-83
2023/07/02 19:51:34;;;;;;;1.33;0.38;;;;;;;23.87;92.76;101013.97;10412532;28;20042;-82
2023/07/02 19:56:36;;;;;;;1.52;0.90;;;;;;;23.64;92.21;101015.50;10402107;28;20057;-78
2023/07/02 20:01:37;;;;;;;0.38;0.17;;;;;;;23.77;92.81;101011.63;10425513;28;20052;-78
2023/07/02 20:06:39;;;;;;;0.90;0.28;;;;;;;23.99;92.62;101015.44;10411227;28;20041;-79
2023/07/02 20:11:41;;;;;;;0.52;0.35;;;;;;;24.19;92.45;101017.50;10417688;28;20573;-79
2023/07/02 20:16:42;;;;;;;0.10;0.08;;;;;;;23.79;93.47;101023.88;10404660;28;20057;-79
2023/07/02 20:21:44;;;;;;;1.45;0.43;;;;;;;23.69;95.89;101023.25;10409408;28;20051;-80
2023/07/02 20:26:49;;;;;;;0.03;0.03;;;;;;;24.26;94.76;101024.31;10432247;28;20049;-79
2023/07/02 20:31:51;;;;;;;0.55;0.55;;;;;;;23.82;95.29;101019.41;10411594;28;20049;-80
2023/07/02 20:36:53;;;;;;;0.38;0.38;;;;;;;24.21;95.37;101031.50;10410919;28;20400;-80
2023/07/02 20:41:56;;;;;;;0.73;0.35;;;;;;;23.75;96.90;101037.09;10432038;28;20042;-80
2023/07/02 20:46:58;;;;;;;1.05;0.43;;;;;;;24.08;96.19;101031.84;10412092;28;20085;-80
2023/07/02 20:52:00;;;;;;;0.35;0.22;;;;;;;23.71;97.67;101027.59;10428436;28;20049;-79
2023/07/02 20:57:01;;;;;;;0.68;0.47;;;;;;;23.51;98.07;101030.75;10411999;28;20068;-80
2023/07/02 21:02:03;;;;;;;1.08;1.00;;;;;;;23.38;99.16;101024.94;10415327;28;20060;-79
2023/07/02 21:07:05;;;;;;;0.93;0.80;;;;;;;23.64;99.53;101018.13;10414537;28;20045;-79
2023/07/02 21:12:07;;;;;;;0.52;0.32;;;;;;;23.40;98.97;101025.75;10414594;28;20053;-80
2023/07/02 21:17:10;;;;;;;0.63;0.63;;;;;;;23.92;98.94;101014.75;10413857;28;20052;-80
2023/07/02 21:22:13;;;;;;;0.45;0.32;;;;;;;24.01;98.95;101021.53;10430676;28;20059;-80
2023/07/02 21:27:14;;;;;;;1.08;0.30;;;;;;;23.86;99.29;101028.06;10414138;28;20049;-80
2023/07/02 21:32:16;;;;;;;0.05;0.05;;;;;;;23.41;100.00;101019.59;10413587;28;20522;-79
2023/07/02 21:37:18;;;;;;;0.22;0.20;;;;;;;23.87;100.00;101022.75;10414487;28;20048;-79
2023/07/02 21:42:19;;;;;;;3.40;0.40;;;;;;;24.31;100.00;101021.53;10407070;28;20488;-79
2023/07/02 21:47:21;;;;;;;0.00;0.00;;;;;;;23.89;100.00;101028.84;10423943;28;20052;-79
2023/07/02 21:52:23;;;;;;;0.10;0.10;;;;;;;23.10;100.00;101020.34;10429944;28;20230;-79
2023/07/02 21:57:27;;;;;;;0.28;0.28;;;;;;;22.78;100.00;101021.13;10404798;28;20496;-79
2023/07/02 22:02:29;;;;;;;0.57;0.50;;;;;;;23.28;100.00;101015.53;10410873;28;20064;-79
2023/07/02 22:07:31;;;;;;;3.50;0.63;;;;;;;23.85;100.00;101013.19;10396250;28;20058;-84
2023/07/02 22:12:33;;;;;;;0.15;0.15;;;;;;;23.36;100.00;101008.31;10439226;28;20057;-84
2023/07/02 22:17:35;;;;;;;0.40;0.10;;;;;;;23.66;100.00;101011.03;10408066;28;20041;-84
2023/07/02 22:22:38;;;;;;;0.10;0.10;;;;;;;23.44;100.00;101008.13;10419706;28;20045;-84
2023/07/02 22:27:40;;;;;;;0.28;0.10;;;;;;;23.46;100.00;101006.31;10429085;28;20060;-84
2023/07/02 22:32:42;;;;;;;0.90;0.47;;;;;;;23.25;100.00;100995.47;10417724;28;20053;-84
2023/07/02 22:37:45;;;;;;;0.40;0.32;;;;;;;23.43;100.00;100999.38;10416634;28;20400;-84
2023/07/02 22:42:48;;;;;;;0.55;0.30;;;;;;;23.68;100.00;100990.84;10408784;28;20408;-84
2023/07/02 22:47:50;;;;;;;1.33;0.57;;;;;;;23.64;100.00;100994.47;10417165;28;20120;-85
2023/07/02 22:52:52;;;;;;;5.15;0.55;;;;;;;23.12;100.00;100986.97;10414282;28;20049;-79
2023/07/02 22:57:53;;;;;;;0.43;0.28;;;;;;;23.16;100.00;100981.66;10427066;28;20041;-79
2023/07/02 23:02:55;;;;;;;0.20;0.20;;;;;;;22.90;100.00;100981.41;10427293;28;20507;-80